Time;durP1;ratioP1;P1;durP2;ratioP2;P2;SDS_P1;SDS_P2;PMS_P1;PMS_P2;Temp;Humidity;BMP_temperature;BMP_pressure;BME280_temperature;BME280_humidity;BME280_pressure;Samples;Min_cycle;Max_cycle;Signal;HPM_P1;HPM_P2
2021/10/22 00:01:45;;;;;;;;;;;;;;;6.74;100.00;98892.88;4905206;28;19925;-67
2021/10/22 00:04:11;;;;;;;;;;;;;;;6.97;100.00;98897.56;4940908;28;19923;-67
2021/10/22 00:06:36;;;;;;;;;;;;;;;7.02;100.00;98886.34;4935209;28;19927;-67
2021/10/22 00:09:02;;;;;;;;;;;;;;;7.33;100.00;98883.19;4941055;28;19932;-67
2021/10/22 00:11:27;;;;;;;;;;;;;;;6.68;100.00;98887.00;4945311;28;19918;-67
2021/10/22 00:13:52;;;;;;;;;;;;;;;6.94;100.00;98888.22;4935042;28;19919;-67
2021/10/22 00:16:18;;;;;;;;;;;;;;;7.01;100.00;98894.91;4904337;28;19915;-67
2021/10/22 00:18:43;;;;;;;;;;;;;;;6.95;100.00;98889.06;4943873;28;19930;-68
2021/10/22 00:21:09;;;;;;;;;;;;;;;6.91;100.00;98888.28;4944238;28;21019;-66
2021/10/22 00:23:34;;;;;;;;;;;;;;;6.82;100.00;98888.44;4938395;28;19980;-66
2021/10/22 00:26:00;;;;;;;;;;;;;;;6.78;100.00;98881.72;4926254;28;20069;-67
2021/10/22 00:28:25;;;;;;;;;;;;;;;6.93;100.00;98899.31;4951790;28;20026;-67
2021/10/22 00:30:51;;;;;;;;;;;;;;;7.24;100.00;98885.94;4951738;28;19923;-66
2021/10/22 00:33:16;;;;;;;;;;;;;;;7.49;100.00;98887.13;4953640;28;19920;-67
2021/10/22 00:35:41;;;;;;;;;;;;;;;7.01;100.00;98881.28;4955135;28;19917;-66
2021/10/22 00:38:07;;;;;;;;;;;;;;;7.15;100.00;98878.44;4945207;28;19914;-66
2021/10/22 00:40:32;;;;;;;;;;;;;;;6.92;100.00;98884.84;4948403;28;20371;-66
2021/10/22 00:42:58;;;;;;;;;;;;;;;7.06;100.00;98875.19;4948887;28;20277;-66
2021/10/22 00:45:23;;;;;;;;;;;;;;;6.94;100.00;98878.00;4915349;28;20133;-66
2021/10/22 00:47:50;;;;;;;;;;;;;;;6.86;100.00;98880.69;4950977;28;20019;-66
2021/10/22 00:50:15;;;;;;;;;;;;;;;6.68;100.00;98875.91;4946243;28;19989;-66
2021/10/22 00:52:41;;;;;;;;;;;;;;;6.97;100.00;98887.31;4953091;28;19995;-66
2021/10/22 00:55:09;;;;;;;;;;;;;;;7.00;100.00;98890.69;4901605;28;20075;-66
2021/10/22 00:57:34;;;;;;;;;;;;;;;7.09;100.00;98903.31;4970007;28;19994;-68
2021/10/22 00:59:59;;;;;;;;;;;;;;;7.40;100.00;98882.19;4901930;28;19914;-68
2021/10/22 01:02:25;;;;;;;;;;;;;;;7.54;100.00;98875.03;4928266;28;20056;-68
2021/10/22 01:04:50;;;;;;;;;;;;;;;6.85;100.00;98873.06;4901261;28;19919;-68
2021/10/22 01:07:16;;;;;;;;;;;;;;;6.70;100.00;98875.03;4868351;28;1942218;-68
2021/10/22 01:09:42;;;;;;;;;;;;;;;6.86;100.00;98884.97;4942340;28;20358;-66
2021/10/22 01:12:09;;;;;;;;;;;;;;;7.18;100.00;98875.81;4908883;28;19992;-66
2021/10/22 01:14:34;;;;;;;;;;;;;;;7.28;100.00;98864.53;4965565;28;19927;-66
2021/10/22 01:17:00;;;;;;;;;;;;;;;7.22;100.00;98869.75;4908203;28;19919;-64
2021/10/22 01:19:25;;;;;;;;;;;;;;;7.03;100.00;98870.13;4937640;28;20420;-66
2021/10/22 01:21:52;;;;;;;;;;;;;;;6.78;100.00;98877.44;4937527;28;19972;-66
2021/10/22 01:24:18;;;;;;;;;;;;;;;7.18;100.00;98865.56;4961944;28;20041;-66
2021/10/22 01:26:43;;;;;;;;;;;;;;;6.90;100.00;98861.00;4959907;28;20442;-66
2021/10/22 01:29:09;;;;;;;;;;;;;;;6.97;100.00;98866.84;4962849;28;20000;-66
2021/10/22 01:31:34;;;;;;;;;;;;;;;7.25;100.00;98865.44;4950063;28;20294;-66
2021/10/22 01:34:00;;;;;;;;;;;;;;;7.10;100.00;98866.56;4961613;28;20007;-64
2021/10/22 01:36:26;;;;;;;;;;;;;;;6.92;100.00;98854.13;4918105;28;19915;-64
2021/10/22 01:38:53;;;;;;;;;;;;;;;7.42;100.00;98852.25;4919219;28;20291;-66
2021/10/22 01:41:19;;;;;;;;;;;;;;;7.18;100.00;98845.91;4972877;28;19922;-66
2021/10/22 01:43:46;;;;;;;;;;;;;;;7.13;100.00;98847.72;4941338;28;20380;-67
2021/10/22 01:46:11;;;;;;;;;;;;;;;7.55;100.00;98850.28;4945502;28;19931;-68
2021/10/22 01:48:37;;;;;;;;;;;;;;;7.45;100.00;98846.22;4934026;28;19923;-68
2021/10/22 01:51:03;;;;;;;;;;;;;;;7.46;100.00;98838.50;4931856;28;19926;-68
2021/10/22 01:53:28;;;;;;;;;;;;;;;7.47;100.00;98837.63;4937648;28;20018;-66
2021/10/22 01:55:53;;;;;;;;;;;;;;;7.40;100.00;98822.41;4946245;28;19923;-66
2021/10/22 01:58:19;;;;;;;;;;;;;;;7.43;100.00;98835.16;4962569;28;19982;-66
2021/10/22 02:00:44;;;;;;;;;;;;;;;7.63;100.00;98832.16;4945420;28;19930;-66
2021/10/22 02:03:10;;;;;;;;;;;;;;;7.53;100.00;98828.97;4952246;28;19923;-66
2021/10/22 02:05:36;;;;;;;;;;;;;;;7.43;100.00;98819.78;4953544;28;20296;-66
2021/10/22 02:08:01;;;;;;;;;;;;;;;7.59;100.00;98820.28;4966098;28;19922;-66
2021/10/22 02:10:27;;;;;;;;;;;;;;;7.40;100.00;98823.25;5000469;28;19964;-68
2021/10/22 02:12:52;;;;;;;;;;;;;;;7.19;100.00;98821.19;4930137;28;19941;-67
2021/10/22 02:15:18;;;;;;;;;;;;;;;7.35;100.00;98822.53;4927804;28;19930;-67
2021/10/22 02:17:43;;;;;;;;;;;;;;;7.63;100.00;98827.03;4902945;28;19976;-67
2021/10/22 02:20:09;;;;;;;;;;;;;;;7.59;100.00;98815.16;4948280;28;19961;-64
2021/10/22 02:22:35;;;;;;;;;;;;;;;7.27;100.00;98814.16;4931431;28;19969;-66
2021/10/22 02:25:00;;;;;;;;;;;;;;;7.78;100.00;98811.31;4933548;28;19919;-67
2021/10/22 02:27:26;;;;;;;;;;;;;;;7.47;100.00;98817.13;4929562;28;20380;-67
2021/10/22 02:29:51;;;;;;;;;;;;;;;7.52;100.00;98805.03;4943737;28;20362;-66
2021/10/22 02:32:16;;;;;;;;;;;;;;;7.51;100.00;98808.50;4946496;28;19931;-67
2021/10/22 02:34:42;;;;;;;;;;;;;;;8.01;100.00;98799.66;4946635;28;20370;-64
2021/10/22 02:37:07;;;;;;;;;;;;;;;7.64;100.00;98803.94;4913255;29;20600;-64
2021/10/22 02:39:34;;;;;;;;;;;;;;;7.31;100.00;98811.50;4897432;29;19957;-64
2021/10/22 02:42:00;;;;;;;;;;;;;;;7.11;100.00;98809.34;4976104;28;20375;-64
2021/10/22 02:44:26;;;;;;;;;;;;;;;7.69;100.00;98796.13;4926299;28;19915;-64
2021/10/22 02:46:51;;;;;;;;;;;;;;;7.37;100.00;98787.47;4913738;29;20005;-64
2021/10/22 02:49:16;;;;;;;;;;;;;;;7.29;100.00;98797.03;4910397;29;19927;-63
2021/10/22 02:51:42;;;;;;;;;;;;;;;7.50;100.00;98799.13;4917974;28;19916;-64
2021/10/22 02:54:07;;;;;;;;;;;;;;;7.49;100.00;98800.00;4941765;28;19930;-68
2021/10/22 02:56:33;;;;;;;;;;;;;;;7.08;100.00;98803.47;4925415;28;19915;-64
2021/10/22 02:58:58;;;;;;;;;;;;;;;7.19;100.00;98811.75;4918216;29;20010;-64
2021/10/22 03:01:23;;;;;;;;;;;;;;;7.32;100.00;98802.06;4914749;29;20352;-64
2021/10/22 03:03:49;;;;;;;;;;;;;;;7.04;100.00;98812.91;4926404;28;20377;-64
2021/10/22 03:06:14;;;;;;;;;;;;;;;7.39;100.00;98808.78;4962686;28;19915;-63
2021/10/22 03:08:40;;;;;;;;;;;;;;;7.25;100.00;98805.66;4912120;29;19919;-66
2021/10/22 03:11:05;;;;;;;;;;;;;;;7.37;100.00;98810.53;4914034;29;19922;-66
2021/10/22 03:13:31;;;;;;;;;;;;;;;7.43;100.00;98809.53;4920917;28;19923;-67
2021/10/22 03:15:56;;;;;;;;;;;;;;;7.21;100.00;98802.34;4906456;29;19919;-64
2021/10/22 03:18:21;;;;;;;;;;;;;;;7.14;100.00;98813.59;4899846;29;20028;-64
2021/10/22 03:20:47;;;;;;;;;;;;;;;7.26;100.00;98812.47;4920770;29;19951;-64
2021/10/22 03:23:12;;;;;;;;;;;;;;;7.18;100.00;98809.22;4939596;28;19915;-64
2021/10/22 03:25:38;;;;;;;;;;;;;;;7.09;100.00;98806.00;4925534;28;19923;-64
2021/10/22 03:28:06;;;;;;;;;;;;;;;7.03;100.00;98816.38;4927758;29;19926;-64
2021/10/22 03:30:32;;;;;;;;;;;;;;;6.75;100.00;98815.22;4936168;28;20270;-64
2021/10/22 03:32:57;;;;;;;;;;;;;;;6.91;100.00;98811.47;4950951;28;19964;-64
2021/10/22 03:35:23;;;;;;;;;;;;;;;7.20;100.00;98807.47;4975671;28;19919;-63
2021/10/22 03:37:48;;;;;;;;;;;;;;;6.94;100.00;98815.72;4964590;28;19980;-67
2021/10/22 03:40:13;;;;;;;;;;;;;;;6.97;100.00;98806.25;4940421;28;19981;-67
2021/10/22 03:42:39;;;;;;;;;;;;;;;6.87;100.00;98805.59;4930614;28;19930;-67
2021/10/22 03:45:05;;;;;;;;;;;;;;;7.09;100.00;98805.13;4944085;28;19923;-67
2021/10/22 03:47:30;;;;;;;;;;;;;;;7.14;100.00;98793.09;4943004;28;19967;-67
2021/10/22 03:49:55;;;;;;;;;;;;;;;7.07;100.00;98794.06;4949880;28;20328;-67
2021/10/22 03:52:21;;;;;;;;;;;;;;;7.05;100.00;98794.13;4931549;28;20522;-66
2021/10/22 03:54:46;;;;;;;;;;;;;;;7.13;100.00;98791.41;4937843;28;19919;-67
2021/10/22 03:57:12;;;;;;;;;;;;;;;7.01;100.00;98787.38;4941191;28;19957;-67
2021/10/22 03:59:37;;;;;;;;;;;;;;;7.39;100.00;98783.16;4938816;28;19927;-67
2021/10/22 04:02:03;;;;;;;;;;;;;;;7.24;100.00;98779.22;4943087;28;19923;-67
2021/10/22 04:04:29;;;;;;;;;;;;;;;7.00;100.00;98780.59;4948337;28;20380;-67
2021/10/22 04:06:56;;;;;;;;;;;;;;;7.00;100.00;98765.22;4979303;28;19937;-68
2021/10/22 04:09:22;;;;;;;;;;;;;;;7.03;100.00;98765.16;4949647;28;19927;-68
2021/10/22 04:11:47;;;;;;;;;;;;;;;6.98;100.00;98771.22;4941260;28;20430;-68
2021/10/22 04:14:13;;;;;;;;;;;;;;;6.74;100.00;98772.59;4935991;28;19937;-67
2021/10/22 04:16:38;;;;;;;;;;;;;;;7.02;100.00;98772.84;4940893;28;19965;-68
2021/10/22 04:19:04;;;;;;;;;;;;;;;7.03;100.00;98760.03;4940455;28;19973;-66
2021/10/22 04:21:29;;;;;;;;;;;;;;;6.76;100.00;98763.19;4933907;28;19928;-66
2021/10/22 04:23:55;;;;;;;;;;;;;;;6.70;100.00;98771.81;4946612;28;19919;-66
2021/10/22 04:26:20;;;;;;;;;;;;;;;7.13;100.00;98758.94;4948800;28;19915;-66
2021/10/22 04:28:46;;;;;;;;;;;;;;;7.20;100.00;98758.81;4950886;28;19918;-68
2021/10/22 04:31:11;;;;;;;;;;;;;;;6.85;100.00;98760.44;4939089;28;19919;-68
2021/10/22 04:33:38;;;;;;;;;;;;;;;7.30;100.00;98747.50;4938718;28;19960;-68
2021/10/22 04:36:06;;;;;;;;;;;;;;;7.20;100.00;98749.41;4928573;28;19932;-68
2021/10/22 04:41:16;;;;;;;;;;;;;;;6.95;100.00;98759.34;4938202;28;19976;-68
2021/10/22 04:43:41;;;;;;;;;;;;;;;6.91;100.00;98761.16;4934310;28;19926;-67
2021/10/22 04:46:06;;;;;;;;;;;;;;;7.12;100.00;98748.75;4960669;28;19969;-64
2021/10/22 04:48:32;;;;;;;;;;;;;;;6.80;100.00;98755.41;4908805;28;19971;-64
2021/10/22 04:50:57;;;;;;;;;;;;;;;6.76;100.00;98747.81;4954489;28;19926;-64
2021/10/22 04:53:25;;;;;;;;;;;;;;;6.99;100.00;98755.84;4948880;28;19917;-64
2021/10/22 04:55:50;;;;;;;;;;;;;;;7.05;100.00;98742.94;4938723;28;19924;-64
2021/10/22 04:58:16;;;;;;;;;;;;;;;6.98;100.00;98751.63;4962909;28;19921;-67
2021/10/22 05:00:41;;;;;;;;;;;;;;;7.15;100.00;98752.97;4947414;28;19920;-67
2021/10/22 05:03:07;;;;;;;;;;;;;;;7.04;100.00;98755.75;4941574;28;20430;-67
2021/10/22 05:05:32;;;;;;;;;;;;;;;7.28;100.00;98755.22;4942138;28;19922;-67
2021/10/22 05:07:57;;;;;;;;;;;;;;;6.95;100.00;98764.47;4942870;28;19921;-67
2021/10/22 05:10:23;;;;;;;;;;;;;;;7.07;100.00;98771.03;4944815;28;19919;-66
2021/10/22 05:12:48;;;;;;;;;;;;;;;7.11;100.00;98773.50;4954328;28;20384;-66
2021/10/22 05:15:14;;;;;;;;;;;;;;;7.13;100.00;98770.91;4941644;28;19926;-66
2021/10/22 05:17:39;;;;;;;;;;;;;;;6.77;100.00;98778.47;4940351;28;19922;-67
2021/10/22 05:20:06;;;;;;;;;;;;;;;7.00;100.00;98790.84;4941700;28;20010;-67
2021/10/22 05:22:31;;;;;;;;;;;;;;;7.21;100.00;98778.44;4950458;28;19922;-66
2021/10/22 05:24:57;;;;;;;;;;;;;;;7.15;100.00;98791.38;4946551;28;19923;-66
2021/10/22 05:27:22;;;;;;;;;;;;;;;6.84;100.00;98794.56;4937182;28;20068;-66
2021/10/22 05:29:48;;;;;;;;;;;;;;;7.00;100.00;98782.28;4932404;28;19933;-66
2021/10/22 05:32:13;;;;;;;;;;;;;;;7.04;100.00;98784.75;4944202;28;19946;-66
2021/10/22 05:34:39;;;;;;;;;;;;;;;6.91;100.00;98780.75;4948763;28;19920;-66
2021/10/22 05:37:04;;;;;;;;;;;;;;;6.76;100.00;98781.94;4939027;28;20380;-66
2021/10/22 05:39:30;;;;;;;;;;;;;;;7.18;100.00;98773.38;4942922;28;19919;-66
2021/10/22 05:41:55;;;;;;;;;;;;;;;6.99;100.00;98773.78;4949949;28;19917;-66
2021/10/22 05:44:21;;;;;;;;;;;;;;;7.02;100.00;98766.00;4960009;28;19919;-66
2021/10/22 05:46:46;;;;;;;;;;;;;;;6.98;100.00;98766.13;4935695;28;19919;-66
2021/10/22 05:49:12;;;;;;;;;;;;;;;6.85;100.00;98763.00;4944988;28;19933;-64
2021/10/22 05:51:38;;;;;;;;;;;;;;;6.89;100.00;98752.66;4955676;28;19919;-67
2021/10/22 05:54:03;;;;;;;;;;;;;;;6.95;100.00;98764.47;4941922;28;20474;-64
2021/10/22 05:56:28;;;;;;;;;;;;;;;7.10;100.00;98751.34;4936548;28;20512;-67
2021/10/22 05:58:55;;;;;;;;;;;;;;;7.10;100.00;98740.25;4926682;28;19923;-67
2021/10/22 06:01:21;;;;;;;;;;;;;;;7.23;100.00;98736.56;4929628;28;20006;-68
2021/10/22 06:03:46;;;;;;;;;;;;;;;7.20;100.00;98730.66;4901166;28;20009;-67
2021/10/22 06:06:12;;;;;;;;;;;;;;;7.01;100.00;98730.22;4942054;28;20339;-67
2021/10/22 06:08:38;;;;;;;;;;;;;;;6.94;100.00;98726.94;4932749;28;19923;-67
2021/10/22 06:11:10;;;;;;;;;;;;;;;6.73;100.00;98728.25;4934395;28;19919;-67
2021/10/22 06:13:35;;;;;;;;;;;;;;;6.95;100.00;98733.75;4935459;28;19917;-67
2021/10/22 06:16:01;;;;;;;;;;;;;;;7.21;100.00;98729.78;4939804;28;19924;-67
2021/10/22 06:18:26;;;;;;;;;;;;;;;7.22;100.00;98732.28;4936864;28;20005;-68
2021/10/22 06:20:57;;;;;;;;;;;;;;;6.97;100.00;98728.59;4943196;28;19915;-68
2021/10/22 06:26:07;;;;;;;;;;;;;;;7.05;100.00;98711.38;4942086;28;20464;-66
2021/10/22 06:28:32;;;;;;;;;;;;;;;7.05;100.00;98704.53;4933938;28;19919;-63
2021/10/22 06:30:58;;;;;;;;;;;;;;;7.05;100.00;98701.97;4953464;28;20404;-65
2021/10/22 06:33:23;;;;;;;;;;;;;;;7.18;100.00;98701.66;4945585;28;20008;-67
2021/10/22 06:35:50;;;;;;;;;;;;;;;7.10;100.00;98695.00;4947255;28;19919;-67
2021/10/22 06:38:15;;;;;;;;;;;;;;;7.13;100.00;98688.97;4947302;28;19942;-67
2021/10/22 06:40:41;;;;;;;;;;;;;;;7.05;100.00;98696.84;4897765;28;19965;-66
2021/10/22 06:43:07;;;;;;;;;;;;;;;7.29;100.00;98694.56;4953423;28;19924;-67
2021/10/22 06:45:32;;;;;;;;;;;;;;;7.49;100.00;98692.38;4946091;28;19915;-64
2021/10/22 06:47:58;;;;;;;;;;;;;;;7.22;100.00;98703.28;4930447;28;19983;-68
2021/10/22 06:50:23;;;;;;;;;;;;;;;7.39;100.00;98701.19;4956609;28;19919;-68
2021/10/22 06:52:49;;;;;;;;;;;;;;;7.47;100.00;98708.66;4951331;28;19921;-68
2021/10/22 06:55:15;;;;;;;;;;;;;;;7.45;100.00;98711.25;4932298;28;19918;-68
2021/10/22 06:57:41;;;;;;;;;;;;;;;7.58;100.00;98705.84;4996935;28;20276;-64
2021/10/22 07:00:10;;;;;;;;;;;;;;;7.52;100.00;98714.53;4933390;28;20009;-63
2021/10/22 07:02:51;;;;;;;;;;;;;;;7.35;100.00;98714.94;4955518;28;20009;-64
2021/10/22 07:07:55;;;;;;;;;;;;;;;7.99;100.00;98706.53;4952602;28;19953;-66
2021/10/22 07:10:21;;;;;;;;;;;;;;;7.74;100.00;98714.84;4936810;28;20048;-65
2021/10/22 07:12:47;;;;;;;;;;;;;;;7.75;100.00;98713.94;4936794;28;19985;-64
2021/10/22 07:15:12;;;;;;;;;;;;;;;8.03;100.00;98715.78;4947016;28;19919;-67
2021/10/22 07:17:38;;;;;;;;;;;;;;;7.93;100.00;98731.44;4944578;28;20304;-67
2021/10/22 07:20:04;;;;;;;;;;;;;;;7.88;100.00;98730.72;4958847;28;20454;-67
2021/10/22 07:22:32;;;;;;;;;;;;;;;7.81;100.00;98734.31;4958609;28;19924;-67
2021/10/22 07:24:57;;;;;;;;;;;;;;;7.92;100.00;98747.69;4943530;28;20310;-66
2021/10/22 07:27:23;;;;;;;;;;;;;;;8.04;100.00;98750.84;4954415;28;19922;-67
2021/10/22 07:29:49;;;;;;;;;;;;;;;8.09;100.00;98746.41;4955392;28;19928;-64
2021/10/22 07:32:14;;;;;;;;;;;;;;;8.09;100.00;98738.72;4965171;28;19927;-63
2021/10/22 07:34:40;;;;;;;;;;;;;;;8.14;100.00;98739.44;4957863;28;19961;-64
2021/10/22 07:37:05;;;;;;;;;;;;;;;8.02;100.00;98737.22;4955663;28;19950;-64
2021/10/22 07:39:31;;;;;;;;;;;;;;;8.16;100.00;98745.38;4955664;28;20950;-64
2021/10/22 07:41:56;;;;;;;;;;;;;;;7.93;100.00;98740.84;4956405;28;19938;-64
2021/10/22 07:44:22;;;;;;;;;;;;;;;8.14;100.00;98747.13;4960587;28;19929;-66
2021/10/22 07:46:48;;;;;;;;;;;;;;;8.63;100.00;98737.31;4986812;28;19952;-66
2021/10/22 07:49:13;;;;;;;;;;;;;;;8.08;100.00;98744.75;4955278;28;19915;-66
2021/10/22 07:51:39;;;;;;;;;;;;;;;8.36;100.00;98753.38;4996962;28;19925;-66
2021/10/22 07:54:05;;;;;;;;;;;;;;;8.04;100.00;98745.72;4937613;28;19917;-63
2021/10/22 07:56:30;;;;;;;;;;;;;;;8.13;100.00;98750.59;4973405;28;19915;-63
2021/10/22 07:58:56;;;;;;;;;;;;;;;8.15;100.00;98749.66;4912768;29;20344;-63
2021/10/22 08:01:21;;;;;;;;;;;;;;;8.51;100.00;98756.47;4922960;28;19942;-65
2021/10/22 08:03:47;;;;;;;;;;;;;;;8.67;100.00;98741.47;4926224;28;19938;-65
2021/10/22 08:06:13;;;;;;;;;;;;;;;8.78;100.00;98752.25;4929884;28;19919;-65
2021/10/22 08:08:40;;;;;;;;;;;;;;;8.79;100.00;98748.81;4932131;28;20568;-66
2021/10/22 08:11:05;;;;;;;;;;;;;;;8.95;100.00;98751.78;4918802;28;19915;-65
2021/10/22 08:13:31;;;;;;;;;;;;;;;8.35;100.00;98756.84;4930406;28;20344;-65
2021/10/22 08:15:57;;;;;;;;;;;;;;;8.58;100.00;98750.28;4946605;28;19914;-65
2021/10/22 08:18:22;;;;;;;;;;;;;;;8.14;100.00;98754.84;4952832;28;19965;-65
2021/10/22 08:20:52;;;;;;;;;;;;;;;8.87;100.00;98753.72;4942275;28;19915;-65
2021/10/22 08:25:44;;;;;;;;;;;;;;;8.96;100.00;98750.88;5152527;27;19968;-64
2021/10/22 08:28:09;;;;;;;;;;;;;;;8.76;100.00;98749.75;5143471;27;19916;-63
2021/10/22 08:30:35;;;;;;;;;;;;;;;8.47;100.00;98752.31;5119957;27;19919;-67
2021/10/22 08:33:01;;;;;;;;;;;;;;;8.85;100.00;98770.91;5123659;27;19915;-67
2021/10/22 08:35:27;;;;;;;;;;;;;;;8.59;100.00;98751.94;5119652;27;19934;-67
2021/10/22 08:37:53;;;;;;;;;;;;;;;8.46;100.00;98769.44;5121953;27;19938;-67
2021/10/22 08:40:19;;;;;;;;;;;;;;;9.12;100.00;98759.84;5127228;27;20288;-66
2021/10/22 08:42:45;;;;;;;;;;;;;;;8.80;100.00;98758.19;5127316;27;19916;-67
2021/10/22 08:45:11;;;;;;;;;;;;;;;9.16;100.00;98758.84;5125751;27;20418;-66
2021/10/22 08:47:37;;;;;;;;;;;;;;;9.02;100.00;98768.69;5123591;27;19915;-68
2021/10/22 08:50:07;;;;;;;;;;;;;;;9.38;100.00;98771.06;5122355;27;20012;-68
2021/10/22 08:52:33;;;;;;;;;;;;;;;9.14;100.00;98752.91;5126133;27;20307;-68
2021/10/22 08:54:58;;;;;;;;;;;;;;;8.87;100.00;98764.00;5125135;27;19971;-68
2021/10/22 08:57:24;;;;;;;;;;;;;;;9.17;100.00;98747.69;5143701;27;19923;-68
2021/10/22 08:59:52;;;;;;;;;;;;;;;9.29;100.00;98751.59;5124854;27;19962;-68
2021/10/22 09:02:20;;;;;;;;;;;;;;;9.10;100.00;98751.34;5124197;27;20453;-68
2021/10/22 09:04:46;;;;;;;;;;;;;;;9.26;100.00;98743.16;5125976;27;20389;-68
2021/10/22 09:07:12;;;;;;;;;;;;;;;9.58;100.00;98771.28;5124715;27;20040;-68
2021/10/22 09:09:37;;;;;;;;;;;;;;;9.64;100.00;98767.66;5125786;27;19923;-66
2021/10/22 09:12:03;;;;;;;;;;;;;;;9.20;100.00;98770.72;5124045;27;19924;-66
2021/10/22 09:14:28;;;;;;;;;;;;;;;9.53;100.00;98762.84;5123596;27;19912;-68
2021/10/22 09:16:54;;;;;;;;;;;;;;;9.11;100.00;98771.00;5125811;27;19911;-64
2021/10/22 09:19:27;;;;;;;;;;;;;;;9.57;100.00;98771.31;5132304;27;19967;-64
2021/10/22 09:21:53;;;;;;;;;;;;;;;9.41;100.00;98770.94;5129442;27;19912;-64
2021/10/22 09:24:20;;;;;;;;;;;;;;;9.59;100.00;98775.50;5129652;27;20265;-64
2021/10/22 09:26:56;;;;;;;;;;;;;;;9.50;100.00;98762.94;5127872;27;19923;-64
2021/10/22 09:29:22;;;;;;;;;;;;;;;9.45;100.00;98767.41;5124403;27;19926;-63
2021/10/22 09:31:49;;;;;;;;;;;;;;;9.39;100.00;98767.56;5124943;27;19912;-58
2021/10/22 09:34:28;;;;;;;;;;;;;;;9.41;100.00;98758.09;5123093;27;20021;-68
2021/10/22 09:36:54;;;;;;;;;;;;;;;9.56;100.00;98765.34;5077539;27;19919;-68
2021/10/22 09:39:21;;;;;;;;;;;;;;;9.52;100.00;98771.44;5108187;27;19918;-68
2021/10/22 09:41:56;;;;;;;;;;;;;;;9.87;100.00;98769.47;5106560;27;20372;-68
2021/10/22 09:44:26;;;;;;;;;;;;;;;9.89;100.00;98788.28;5124068;27;19930;-68
2021/10/22 09:46:52;;;;;;;;;;;;;;;9.62;100.00;98775.44;5107585;27;19930;-68
2021/10/22 09:49:24;;;;;;;;;;;;;;;9.69;100.00;98782.94;5091721;27;19926;-68
2021/10/22 09:51:50;;;;;;;;;;;;;;;9.75;100.00;98788.72;5126927;27;19922;-68
2021/10/22 09:54:15;;;;;;;;;;;;;;;9.79;100.00;98776.63;5106363;27;19921;-68
2021/10/22 09:56:42;;;;;;;;;;;;;;;9.77;100.00;98788.69;5104957;27;19963;-68
2021/10/22 09:59:07;;;;;;;;;;;;;;;9.85;100.00;98786.69;5107380;27;19969;-68
2021/10/22 10:01:37;;;;;;;;;;;;;;;10.38;100.00;98786.66;5106018;27;20365;-68
2021/10/22 10:04:03;;;;;;;;;;;;;;;9.98;100.00;98784.56;5107493;27;19919;-68
2021/10/22 10:06:32;;;;;;;;;;;;;;;9.63;100.00;98777.09;5106376;27;20040;-68
2021/10/22 10:08:58;;;;;;;;;;;;;;;9.49;100.00;98769.00;5106005;27;19924;-69
2021/10/22 10:11:25;;;;;;;;;;;;;;;10.13;100.00;98770.38;5104241;27;19975;-68
2021/10/22 10:13:51;;;;;;;;;;;;;;;11.14;100.00;98771.91;5109026;27;19919;-68
2021/10/22 10:16:18;;;;;;;;;;;;;;;11.09;100.00;98773.81;5090885;27;19927;-69
2021/10/22 10:18:44;;;;;;;;;;;;;;;10.35;100.00;98763.59;5106443;27;20285;-68
2021/10/22 10:21:10;;;;;;;;;;;;;;;10.80;100.00;98747.38;5106924;27;20322;-68
2021/10/22 10:23:37;;;;;;;;;;;;;;;10.58;100.00;98756.78;5105683;27;19927;-68
2021/10/22 10:26:22;;;;;;;;;;;;;;;10.66;100.00;98760.78;5105952;27;19934;-68
2021/10/22 10:28:50;;;;;;;;;;;;;;;11.20;100.00;98745.91;5122095;27;20006;-68
2021/10/22 10:31:35;;;;;;;;;;;;;;;10.80;100.00;98752.53;5090212;27;19972;-68
2021/10/22 10:34:19;;;;;;;;;;;;;;;10.39;100.00;98752.28;5073286;27;19992;-68
2021/10/22 10:36:51;;;;;;;;;;;;;;;10.58;100.00;98752.50;5105677;27;19924;-68
2021/10/22 10:39:43;;;;;;;;;;;;;;;11.09;100.00;98750.63;5088658;27;19922;-68
2021/10/22 10:42:18;;;;;;;;;;;;;;;10.97;100.00;98748.50;5116777;27;19919;-68
2021/10/22 10:44:44;;;;;;;;;;;;;;;11.18;100.00;98754.59;5105896;27;20045;-68
2021/10/22 10:47:28;;;;;;;;;;;;;;;10.17;100.00;98772.78;5103484;28;20073;-68
2021/10/22 10:49:53;;;;;;;;;;;;;;;10.68;100.00;98758.16;5107468;27;19919;-67
2021/10/22 10:52:37;;;;;;;;;;;;;;;11.04;100.00;98765.44;5106904;27;19923;-68
2021/10/22 10:55:15;;;;;;;;;;;;;;;10.96;100.00;98777.75;5107923;27;20384;-65
2021/10/22 10:57:49;;;;;;;;;;;;;;;11.10;100.00;98775.47;5108675;27;19911;-67
2021/10/22 11:00:16;;;;;;;;;;;;;;;11.13;100.00;98779.69;5111442;27;19942;-67
2021/10/22 11:03:00;;;;;;;;;;;;;;;10.46;100.00;98792.38;5109704;27;20346;-67
2021/10/22 11:05:45;;;;;;;;;;;;;;;10.42;100.00;98793.41;5109162;27;20517;-67
2021/10/22 11:08:17;;;;;;;;;;;;;;;10.79;100.00;98796.41;5108322;27;19923;-67
2021/10/22 11:10:52;;;;;;;;;;;;;;;10.79;100.00;98802.41;5108415;27;19954;-67
2021/10/22 11:13:17;;;;;;;;;;;;;;;10.51;100.00;98791.38;5125954;27;20731;-67
2021/10/22 11:15:42;;;;;;;;;;;;;;;10.51;100.00;98778.50;5102760;27;19915;-67
2021/10/22 11:18:08;;;;;;;;;;;;;;;10.69;100.00;98785.56;5102737;27;20052;-67
2021/10/22 11:20:33;;;;;;;;;;;;;;;10.68;100.00;98774.44;5092524;27;19935;-68
2021/10/22 11:22:59;;;;;;;;;;;;;;;11.09;100.00;98789.28;5091937;27;20820;-68
2021/10/22 11:25:24;;;;;;;;;;;;;;;10.77;100.00;98793.88;5101535;27;19946;-68
2021/10/22 11:27:58;;;;;;;;;;;;;;;11.16;100.00;98795.88;5090111;27;20390;-68
2021/10/22 11:30:23;;;;;;;;;;;;;;;11.15;100.00;98794.19;5088328;28;20053;-66
2021/10/22 11:32:51;;;;;;;;;;;;;;;11.22;100.00;98787.91;5081377;28;19999;-66
2021/10/22 11:35:16;;;;;;;;;;;;;;;11.31;100.00;98784.13;5091683;28;20002;-66
2021/10/22 11:37:42;;;;;;;;;;;;;;;10.98;100.00;98781.09;5092185;28;20011;-65
2021/10/22 11:40:10;;;;;;;;;;;;;;;11.32;100.00;98792.72;5092412;28;19912;-66
2021/10/22 11:42:36;;;;;;;;;;;;;;;11.75;100.00;98783.31;5092308;28;20392;-66
2021/10/22 11:45:07;;;;;;;;;;;;;;;11.09;100.00;98784.13;5093485;27;19919;-66
2021/10/22 11:47:40;;;;;;;;;;;;;;;11.36;100.00;98796.84;5112935;27;19916;-66
2021/10/22 11:50:09;;;;;;;;;;;;;;;11.39;100.00;98779.53;5112203;27;19915;-66
2021/10/22 11:52:35;;;;;;;;;;;;;;;11.44;100.00;98792.25;5094649;27;20384;-66
2021/10/22 11:55:00;;;;;;;;;;;;;;;11.01;100.00;98796.44;5112967;27;19911;-66
2021/10/22 11:57:26;;;;;;;;;;;;;;;11.15;100.00;98794.19;5091692;27;19971;-66
2021/10/22 11:59:55;;;;;;;;;;;;;;;11.04;100.00;98801.50;5112106;27;19918;-66
2021/10/22 12:02:21;;;;;;;;;;;;;;;11.01;100.00;98792.13;5112683;27;19911;-66
2021/10/22 12:04:51;;;;;;;;;;;;;;;11.47;100.00;98799.84;5112369;27;19922;-66
2021/10/22 12:07:16;;;;;;;;;;;;;;;11.13;100.00;98784.84;5112779;28;19919;-66
2021/10/22 12:09:43;;;;;;;;;;;;;;;11.20;100.00;98789.72;5112773;27;19911;-66
2021/10/22 12:12:08;;;;;;;;;;;;;;;11.90;100.00;98793.00;5112453;27;19916;-66
2021/10/22 12:14:47;;;;;;;;;;;;;;;11.82;100.00;98800.22;5097994;27;19918;-64
2021/10/22 12:17:14;;;;;;;;;;;;;;;10.95;100.00;98806.97;5108038;28;19922;-64
2021/10/22 12:19:43;;;;;;;;;;;;;;;10.91;100.00;98810.56;5083453;28;19915;-65
2021/10/22 12:22:09;;;;;;;;;;;;;;;11.11;100.00;98808.09;5094498;28;20011;-63
2021/10/22 12:24:38;;;;;;;;;;;;;;;11.02;100.00;98805.88;5101489;28;20010;-64
2021/10/22 12:27:04;;;;;;;;;;;;;;;11.05;100.00;98810.91;5096803;28;19942;-64
2021/10/22 12:29:44;;;;;;;;;;;;;;;10.67;100.00;98815.69;5083900;28;19950;-64
2021/10/22 12:32:10;;;;;;;;;;;;;;;11.30;100.00;98816.81;5098297;28;19933;-64
2021/10/22 12:34:36;;;;;;;;;;;;;;;10.84;100.00;98810.78;5095429;28;19919;-63
2021/10/22 12:37:13;;;;;;;;;;;;;;;11.12;100.00;98814.94;5098805;28;19924;-64
2021/10/22 12:39:48;;;;;;;;;;;;;;;10.99;100.00;98821.41;5102155;28;19914;-63
2021/10/22 12:42:41;;;;;;;;;;;;;;;10.91;100.00;98815.72;5101246;28;19951;-64
2021/10/22 12:45:22;;;;;;;;;;;;;;;10.74;100.00;98824.91;5096192;28;20389;-64
2021/10/22 12:47:48;;;;;;;;;;;;;;;11.09;100.00;98830.50;5085483;28;20270;-64
2021/10/22 12:50:15;;;;;;;;;;;;;;;11.13;100.00;98832.09;5101268;28;19919;-64
2021/10/22 12:52:41;;;;;;;;;;;;;;;11.23;100.00;98824.84;5101594;28;19916;-64
2021/10/22 12:55:07;;;;;;;;;;;;;;;11.21;100.00;98812.00;5099284;28;19915;-64